createdAt,value
2024-05-09T00:00:49.636Z,100.00
2024-05-09T00:03:20.132Z,100.00
2024-05-09T00:05:47.594Z,100.00
2024-05-09T00:08:18.058Z,100.00
2024-05-09T00:10:47.843Z,100.00
2024-05-09T00:13:18.027Z,100.00
2024-05-09T00:15:45.743Z,100.00
2024-05-09T00:18:13.477Z,100.00
2024-05-09T00:20:44.059Z,99.88
2024-05-09T00:23:14.416Z,100.00
2024-05-09T00:25:44.879Z,100.00
2024-05-09T00:28:13.549Z,100.00
2024-05-09T00:30:42.840Z,100.00
2024-05-09T00:33:11.443Z,100.00
2024-05-09T00:35:39.985Z,100.00
2024-05-09T00:38:07.925Z,100.00
2024-05-09T00:40:40.779Z,100.00
2024-05-09T00:43:14.789Z,100.00
2024-05-09T00:45:43.647Z,99.72
2024-05-09T00:48:19.647Z,100.00
2024-05-09T00:50:49.565Z,100.00
2024-05-09T00:53:19.054Z,100.00
2024-05-09T00:55:50.415Z,100.00
2024-05-09T00:58:20.756Z,100.00
2024-05-09T01:00:51.954Z,100.00
2024-05-09T01:03:22.384Z,99.70
2024-05-09T01:05:50.899Z,100.00
2024-05-09T01:08:19.213Z,100.00
2024-05-09T01:10:48.618Z,100.00
2024-05-09T01:13:16.868Z,100.00
2024-05-09T01:15:44.221Z,100.00
2024-05-09T01:18:13.479Z,100.00
2024-05-09T01:20:44.102Z,100.00
2024-05-09T01:23:14.773Z,100.00
2024-05-09T01:25:47.454Z,100.00
2024-05-09T01:28:16.677Z,100.00
2024-05-09T01:30:44.183Z,100.00
2024-05-09T01:33:12.613Z,100.00
2024-05-09T01:35:42.312Z,99.68
2024-05-09T01:38:11.180Z,100.00
2024-05-09T01:40:40.144Z,100.00
2024-05-09T01:43:09.220Z,100.00
2024-05-09T01:45:37.486Z,100.00
2024-05-09T01:48:05.457Z,100.00
2024-05-09T01:50:38.951Z,100.00
2024-05-09T01:53:14.397Z,100.00
2024-05-09T01:55:47.273Z,100.00
2024-05-09T01:58:14.994Z,100.00
2024-05-09T02:00:43.657Z,100.00
2024-05-09T02:03:15.452Z,100.00
2024-05-09T02:05:48.659Z,100.00
2024-05-09T02:08:22.656Z,100.00
2024-05-09T02:10:51.022Z,100.00
2024-05-09T02:13:18.649Z,100.00
2024-05-09T02:15:46.257Z,100.00
2024-05-09T02:18:14.036Z,100.00
2024-05-09T02:20:42.891Z,100.00
2024-05-09T02:23:11.032Z,100.00
2024-05-09T02:25:38.849Z,100.00
2024-05-09T02:28:06.691Z,100.00
2024-05-09T02:30:40.116Z,100.00
2024-05-09T02:33:12.262Z,100.00
2024-05-09T02:35:41.935Z,100.00
2024-05-09T02:38:10.176Z,100.00
2024-05-09T02:40:39.357Z,100.00
2024-05-09T02:43:10.270Z,100.00
2024-05-09T02:45:39.812Z,100.00
2024-05-09T02:48:10.527Z,100.00
2024-05-09T02:50:39.840Z,100.00
2024-05-09T02:53:13.005Z,100.00
2024-05-09T02:55:41.291Z,100.00
2024-05-09T02:58:09.017Z,100.00
2024-05-09T03:00:40.526Z,100.00
2024-05-09T03:03:12.855Z,100.00
2024-05-09T03:05:43.171Z,100.00
2024-05-09T03:08:10.851Z,100.00
2024-05-09T03:10:40.753Z,100.00
2024-05-09T03:13:14.967Z,100.00
2024-05-09T03:15:43.398Z,100.00
2024-05-09T03:18:11.648Z,100.00
2024-05-09T03:20:42.569Z,100.00
2024-05-09T03:23:12.937Z,100.00
2024-05-09T03:25:40.311Z,100.00
2024-05-09T03:28:07.865Z,100.00
2024-05-09T03:30:40.473Z,100.00
2024-05-09T03:33:15.115Z,100.00
2024-05-09T03:35:45.997Z,100.00
2024-05-09T03:38:16.505Z,100.00
2024-05-09T03:40:48.207Z,100.00
2024-05-09T03:43:16.291Z,100.00
2024-05-09T03:45:44.334Z,100.00
2024-05-09T03:48:11.843Z,100.00
2024-05-09T03:50:39.652Z,100.00
2024-05-09T03:53:11.195Z,100.00
2024-05-09T03:55:38.605Z,100.00
2024-05-09T03:58:06.225Z,100.00
2024-05-09T04:00:38.130Z,100.00
2024-05-09T04:03:10.151Z,100.00
2024-05-09T04:05:43.570Z,100.00
2024-05-09T04:08:11.755Z,100.00
2024-05-09T04:10:40.806Z,100.00
2024-05-09T04:13:08.260Z,100.00
2024-05-09T04:15:35.515Z,100.00
2024-05-09T04:18:03.118Z,100.00
2024-05-09T04:20:37.805Z,100.00
2024-05-09T04:23:09.052Z,100.00
2024-05-09T04:25:36.994Z,100.00
2024-05-09T04:28:04.701Z,100.00
2024-05-09T04:30:38.021Z,100.00
2024-05-09T04:33:10.490Z,100.00
2024-05-09T04:35:39.649Z,100.00
2024-05-09T04:38:07.136Z,100.00
2024-05-09T04:40:36.792Z,100.00
2024-05-09T04:43:06.628Z,100.00
2024-05-09T04:45:34.467Z,100.00
2024-05-09T04:48:04.827Z,100.00
2024-05-09T04:50:37.163Z,100.00
2024-05-09T04:53:08.779Z,100.00
2024-05-09T04:55:38.126Z,100.00
2024-05-09T04:58:08.828Z,100.00
2024-05-09T05:00:38.072Z,100.00
2024-05-09T05:03:13.710Z,100.00
2024-05-09T05:05:44.561Z,100.00
2024-05-09T05:08:14.340Z,100.00
2024-05-09T05:10:42.669Z,100.00
2024-05-09T05:13:13.229Z,100.00
2024-05-09T05:15:40.524Z,100.00
2024-05-09T05:18:07.964Z,100.00
2024-05-09T05:20:35.373Z,100.00
2024-05-09T05:23:02.721Z,100.00
2024-05-09T05:25:30.014Z,100.00
2024-05-09T05:27:57.358Z,100.00
2024-05-09T05:30:32.560Z,100.00
2024-05-09T05:33:01.797Z,100.00
2024-05-09T05:35:32.387Z,100.00
2024-05-09T05:37:59.811Z,100.00
2024-05-09T05:40:35.654Z,100.00
2024-05-09T05:43:05.788Z,100.00
2024-05-09T05:45:32.960Z,100.00
2024-05-09T05:48:00.513Z,100.00
2024-05-09T05:50:35.339Z,100.00
2024-05-09T05:53:06.806Z,100.00
2024-05-09T05:55:34.539Z,100.00
2024-05-09T05:58:02.391Z,100.00
2024-05-09T06:00:37.349Z,100.00
2024-05-09T06:03:06.951Z,100.00
2024-05-09T06:08:28.012Z,100.00
2024-05-09T06:10:57.336Z,100.00
2024-05-09T06:13:24.880Z,99.93
2024-05-09T06:15:52.123Z,100.00
2024-05-09T06:18:19.679Z,100.00
2024-05-09T06:20:47.501Z,99.43
2024-05-09T06:23:15.572Z,97.05
2024-05-09T06:25:43.103Z,97.05
2024-05-09T06:28:10.617Z,96.67
2024-05-09T06:30:40.672Z,96.13
2024-05-09T06:33:12.526Z,94.02
2024-05-09T06:35:41.967Z,95.17
2024-05-09T06:38:09.886Z,98.88
2024-05-09T06:40:43.681Z,98.55
2024-05-09T06:43:17.598Z,100.00
2024-05-09T06:45:52.151Z,100.00
2024-05-09T06:48:20.436Z,100.00
2024-05-09T06:50:48.230Z,96.05
2024-05-09T06:53:16.568Z,95.66
2024-05-09T06:55:43.959Z,95.77
2024-05-09T06:58:11.162Z,94.90
2024-05-09T07:00:40.878Z,95.89
2024-05-09T07:03:19.282Z,99.68
2024-05-09T07:05:49.118Z,98.60
2024-05-09T07:08:17.915Z,95.89
2024-05-09T07:10:45.368Z,95.08
2024-05-09T07:13:13.781Z,97.25
2024-05-09T07:15:44.298Z,99.94
2024-05-09T07:18:19.017Z,100.00
2024-05-09T07:20:48.038Z,96.94
2024-05-09T07:23:16.343Z,96.92
2024-05-09T07:25:52.467Z,96.77
2024-05-09T07:28:29.584Z,98.94
2024-05-09T07:30:59.856Z,96.64
2024-05-09T07:33:29.777Z,94.37
2024-05-09T07:36:00.558Z,95.85
2024-05-09T07:38:31.077Z,95.20
2024-05-09T07:40:58.657Z,95.78
2024-05-09T07:43:28.535Z,95.85
2024-05-09T07:46:23.410Z,95.20
2024-05-09T07:53:57.129Z,93.05
2024-05-09T07:56:29.254Z,93.48
2024-05-09T07:58:56.777Z,94.84
2024-05-09T08:01:27.032Z,93.85
2024-05-09T08:03:55.269Z,90.96
2024-05-09T08:06:29.006Z,91.80
2024-05-09T08:08:57.795Z,93.25
2024-05-09T08:11:26.267Z,92.36
2024-05-09T08:13:53.513Z,90.84
2024-05-09T08:16:20.712Z,89.11
2024-05-09T08:18:48.030Z,89.23
2024-05-09T08:21:15.271Z,89.38
2024-05-09T08:23:42.527Z,90.15
2024-05-09T08:26:09.853Z,90.33
2024-05-09T08:28:37.245Z,86.44
2024-05-09T08:31:06.855Z,82.74
2024-05-09T08:33:35.031Z,85.99
2024-05-09T08:36:02.416Z,84.45
2024-05-09T08:38:30.316Z,84.11
2024-05-09T08:41:02.582Z,85.67
2024-05-09T08:43:33.102Z,86.21
2024-05-09T08:46:06.656Z,86.08
2024-05-09T08:48:41.023Z,87.74
2024-05-09T08:51:08.410Z,85.19
2024-05-09T08:53:35.739Z,83.52
2024-05-09T08:56:03.704Z,88.32
2024-05-09T08:58:31.658Z,87.55
2024-05-09T09:00:59.762Z,87.60
2024-05-09T09:03:33.378Z,85.64
2024-05-09T09:06:06.385Z,84.82
2024-05-09T09:08:33.765Z,84.13
2024-05-09T09:11:01.202Z,84.49
2024-05-09T09:13:28.403Z,83.22
2024-05-09T09:15:55.646Z,82.60
2024-05-09T09:18:24.844Z,81.26
2024-05-09T09:20:53.119Z,80.96
2024-05-09T09:23:20.590Z,80.38
2024-05-09T09:25:51.707Z,79.97
2024-05-09T09:28:19.344Z,79.44
2024-05-09T09:30:46.746Z,76.82
2024-05-09T09:33:14.312Z,77.23
2024-05-09T09:35:41.602Z,77.36
2024-05-09T09:38:11.833Z,77.15
2024-05-09T09:40:49.918Z,76.58
2024-05-09T09:43:22.630Z,75.65
2024-05-09T09:45:51.956Z,77.12
2024-05-09T09:48:23.743Z,73.79
2024-05-09T09:51:05.468Z,72.28
2024-05-09T09:53:41.380Z,71.21
2024-05-09T09:56:16.401Z,72.45
2024-05-09T09:58:44.624Z,72.12
2024-05-09T10:01:12.121Z,70.83
2024-05-09T10:03:42.494Z,70.52
2024-05-09T10:06:16.363Z,73.19
2024-05-09T10:08:43.788Z,72.55
2024-05-09T10:11:11.077Z,72.74
2024-05-09T10:13:42.410Z,71.88
2024-05-09T10:16:11.507Z,70.82
2024-05-09T10:18:41.247Z,70.88
2024-05-09T10:21:24.412Z,68.84
2024-05-09T10:24:11.953Z,71.19
2024-05-09T10:26:39.686Z,69.97
2024-05-09T10:29:18.700Z,69.22
2024-05-09T10:31:47.919Z,69.02
2024-05-09T10:34:19.295Z,68.84
2024-05-09T10:36:46.736Z,69.93
2024-05-09T10:39:14.601Z,69.84
2024-05-09T10:41:41.747Z,70.28
2024-05-09T10:44:16.181Z,71.30
2024-05-09T10:46:43.743Z,69.79
2024-05-09T10:49:11.569Z,71.79
2024-05-09T10:51:39.960Z,70.28
2024-05-09T10:54:07.230Z,69.86
2024-05-09T10:56:34.463Z,70.10
2024-05-09T10:59:04.309Z,67.75
2024-05-09T11:01:31.927Z,67.81
2024-05-09T11:03:59.347Z,68.25
2024-05-09T11:06:26.943Z,67.42
2024-05-09T11:09:07.362Z,67.58
2024-05-09T11:11:34.706Z,68.21
2024-05-09T11:14:13.820Z,68.41
2024-05-09T11:16:59.346Z,69.41
2024-05-09T11:19:46.943Z,70.80
2024-05-09T11:22:17.979Z,69.29
2024-05-09T11:24:46.134Z,67.40
2024-05-09T11:27:13.443Z,66.01
2024-05-09T11:29:42.135Z,68.57
2024-05-09T11:32:10.933Z,68.86
2024-05-09T11:34:39.047Z,68.59
2024-05-09T11:37:06.486Z,66.41
2024-05-09T11:39:33.913Z,68.21
2024-05-09T11:42:03.753Z,69.54
2024-05-09T11:44:32.129Z,67.14
2024-05-09T11:46:59.616Z,67.75
2024-05-09T11:49:35.350Z,65.29
2024-05-09T11:52:02.727Z,65.49
2024-05-09T11:54:31.358Z,65.73
2024-05-09T11:56:58.554Z,64.42
2024-05-09T11:59:25.746Z,65.00
2024-05-09T12:01:53.033Z,61.98
2024-05-09T12:04:23.763Z,63.60
2024-05-09T12:06:51.256Z,63.63
2024-05-09T12:09:20.351Z,63.28
2024-05-09T12:11:51.945Z,62.86
2024-05-09T12:14:19.341Z,61.84
2024-05-09T12:16:47.865Z,62.87
2024-05-09T12:19:19.478Z,62.78
2024-05-09T12:21:47.425Z,61.31
2024-05-09T12:24:18.281Z,60.90
2024-05-09T12:26:46.050Z,60.62
2024-05-09T12:29:19.475Z,61.45
2024-05-09T12:31:48.142Z,61.06
2024-05-09T12:34:21.210Z,61.27
2024-05-09T12:36:48.556Z,62.23
2024-05-09T12:39:15.813Z,61.76
2024-05-09T12:41:43.275Z,62.46
2024-05-09T12:44:10.439Z,62.14
2024-05-09T12:46:39.535Z,62.13
2024-05-09T12:49:09.907Z,62.87
2024-05-09T12:51:40.565Z,63.01
2024-05-09T12:54:08.698Z,62.46
2024-05-09T12:56:37.441Z,60.61
2024-05-09T12:59:06.368Z,61.06
2024-05-09T13:01:34.718Z,58.92
2024-05-09T13:04:03.076Z,58.45
2024-05-09T13:06:30.386Z,57.48
2024-05-09T13:08:58.301Z,56.72
2024-05-09T13:11:28.226Z,56.97
2024-05-09T13:13:58.344Z,58.99
2024-05-09T13:16:29.183Z,59.35
2024-05-09T13:19:00.764Z,58.28
2024-05-09T13:21:31.019Z,59.53
2024-05-09T13:24:04.255Z,59.21
2024-05-09T13:26:37.736Z,58.20
2024-05-09T13:29:04.969Z,58.88
2024-05-09T13:31:37.910Z,58.31
2024-05-09T13:34:11.224Z,59.58
2024-05-09T13:36:41.689Z,57.66
2024-05-09T13:39:11.492Z,57.25
2024-05-09T13:41:39.610Z,57.54
2024-05-09T13:44:11.734Z,58.38
2024-05-09T13:46:49.194Z,58.60
2024-05-09T13:49:16.519Z,58.76
2024-05-09T13:51:49.778Z,58.39
2024-05-09T13:54:20.169Z,56.94
2024-05-09T13:56:50.276Z,56.61
2024-05-09T13:59:21.735Z,57.27
2024-05-09T14:01:52.453Z,56.88
2024-05-09T14:04:20.264Z,57.48
2024-05-09T14:06:50.100Z,58.13
2024-05-09T14:09:18.959Z,58.13
2024-05-09T14:11:46.367Z,58.21
2024-05-09T14:14:14.954Z,58.38
2024-05-09T14:16:43.637Z,58.18
2024-05-09T14:19:12.366Z,59.26
2024-05-09T14:21:42.280Z,58.82
2024-05-09T14:24:10.590Z,59.91
2024-05-09T14:26:41.381Z,57.18
2024-05-09T14:29:11.844Z,56.07
2024-05-09T14:31:41.839Z,54.89
2024-05-09T14:34:15.518Z,54.16
2024-05-09T14:36:43.022Z,54.62
2024-05-09T14:39:19.904Z,54.13
2024-05-09T14:41:48.732Z,55.59
2024-05-09T14:44:17.409Z,55.44
2024-05-09T14:46:45.216Z,55.40
2024-05-09T14:49:14.473Z,56.08
2024-05-09T14:51:51.470Z,56.11
2024-05-09T14:54:20.560Z,55.69
2024-05-09T14:56:51.840Z,56.22
2024-05-09T14:59:22.186Z,55.77
2024-05-09T15:01:57.302Z,54.96
2024-05-09T15:04:34.669Z,55.11
2024-05-09T15:07:02.077Z,55.56
2024-05-09T15:09:36.146Z,56.21
2024-05-09T15:12:03.943Z,56.05
2024-05-09T15:17:12.148Z,56.11
2024-05-09T15:19:42.388Z,55.48
2024-05-09T15:22:15.553Z,56.72
2024-05-09T15:24:52.908Z,55.28
2024-05-09T15:27:21.555Z,56.40
2024-05-09T15:29:48.769Z,54.05
2024-05-09T15:32:16.095Z,54.95
2024-05-09T15:34:43.442Z,55.71
2024-05-09T15:37:10.809Z,54.84
2024-05-09T15:39:41.096Z,55.66
2024-05-09T15:42:09.532Z,55.18
2024-05-09T15:44:36.860Z,53.81
2024-05-09T15:47:04.838Z,54.79
2024-05-09T15:49:32.709Z,55.76
2024-05-09T15:52:02.370Z,55.23
2024-05-09T15:54:31.523Z,53.71
2024-05-09T15:57:02.777Z,54.48
2024-05-09T15:59:30.395Z,54.16
2024-05-09T16:01:59.020Z,53.86
2024-05-09T16:04:27.748Z,52.90
2024-05-09T16:06:55.468Z,53.94
2024-05-09T16:09:23.200Z,53.28
2024-05-09T16:11:50.535Z,54.19
2024-05-09T16:14:17.890Z,53.56
2024-05-09T16:16:45.254Z,53.81
2024-05-09T16:19:13.425Z,52.60
2024-05-09T16:21:41.931Z,52.80
2024-05-09T16:24:18.900Z,52.47
2024-05-09T16:26:47.478Z,52.30
2024-05-09T16:29:16.306Z,52.42
2024-05-09T16:31:46.286Z,52.90
2024-05-09T16:34:16.478Z,51.95
2024-05-09T16:36:44.258Z,52.47
2024-05-09T16:39:13.573Z,52.32
2024-05-09T16:41:40.854Z,51.93
2024-05-09T16:44:11.186Z,52.17
2024-05-09T16:46:41.675Z,51.69
2024-05-09T16:49:11.250Z,51.71
2024-05-09T16:51:40.248Z,51.07
2024-05-09T16:54:07.466Z,51.17
2024-05-09T16:56:37.621Z,52.58
2024-05-09T16:59:06.034Z,52.08
2024-05-09T17:01:33.354Z,52.01
2024-05-09T17:04:01.275Z,52.45
2024-05-09T17:06:29.055Z,52.72
2024-05-09T17:09:08.129Z,53.26
2024-05-09T17:11:38.887Z,54.40
2024-05-09T17:14:06.163Z,52.96
2024-05-09T17:16:34.221Z,53.91
2024-05-09T17:19:04.426Z,54.36
2024-05-09T17:21:31.721Z,53.62
2024-05-09T17:23:58.999Z,53.70
2024-05-09T17:26:26.989Z,53.94
2024-05-09T17:28:55.111Z,54.45
2024-05-09T17:31:23.726Z,53.94
2024-05-09T17:33:51.858Z,53.93
2024-05-09T17:36:19.454Z,55.44
2024-05-09T17:38:46.812Z,55.19
2024-05-09T17:41:14.022Z,55.59
2024-05-09T17:43:42.905Z,56.58
2024-05-09T17:46:10.723Z,56.56
2024-05-09T17:48:38.347Z,55.95
2024-05-09T17:51:08.812Z,56.35
2024-05-09T17:53:36.641Z,56.18
2024-05-09T17:56:03.967Z,56.26
2024-05-09T17:58:34.709Z,56.68
2024-05-09T18:01:02.339Z,57.08
2024-05-09T18:03:30.095Z,56.42
2024-05-09T18:05:59.056Z,56.98
2024-05-09T18:08:26.393Z,58.04
2024-05-09T18:10:55.348Z,57.78
2024-05-09T18:13:23.510Z,57.71
2024-05-09T18:15:51.593Z,58.15
2024-05-09T18:18:19.330Z,58.41
2024-05-09T18:20:47.068Z,58.58
2024-05-09T18:23:17.019Z,58.52
2024-05-09T18:25:45.782Z,58.86
2024-05-09T18:28:14.683Z,58.81
2024-05-09T18:30:43.133Z,58.99
2024-05-09T18:33:12.250Z,58.72
2024-05-09T18:35:41.869Z,59.22
2024-05-09T18:38:09.903Z,59.68
2024-05-09T18:40:42.823Z,59.76
2024-05-09T18:43:12.252Z,59.78
2024-05-09T18:45:40.237Z,60.36
2024-05-09T18:48:14.021Z,60.26
2024-05-09T18:50:41.886Z,61.03
2024-05-09T18:53:16.662Z,61.55
2024-05-09T18:55:47.894Z,61.21
2024-05-09T18:58:15.936Z,61.62
2024-05-09T19:00:49.134Z,62.35
2024-05-09T19:03:18.211Z,61.13
2024-05-09T19:05:47.518Z,61.50
2024-05-09T19:08:17.118Z,60.97
2024-05-09T19:10:47.238Z,61.72
2024-05-09T19:13:16.287Z,61.96
2024-05-09T19:15:44.640Z,61.50
2024-05-09T19:18:15.413Z,62.37
2024-05-09T19:20:44.773Z,62.56
2024-05-09T19:23:12.854Z,62.49
2024-05-09T19:25:40.774Z,63.37
2024-05-09T19:28:08.151Z,62.63
2024-05-09T19:30:41.116Z,62.71
2024-05-09T19:33:14.019Z,63.31
2024-05-09T19:35:44.198Z,62.79
2024-05-09T19:38:12.889Z,62.44
2024-05-09T19:40:40.777Z,62.51
2024-05-09T19:43:09.093Z,64.91
2024-05-09T19:45:36.875Z,64.99
2024-05-09T19:48:06.930Z,65.29
2024-05-09T19:50:41.158Z,65.18
2024-05-09T19:53:14.501Z,65.70
2024-05-09T19:55:44.179Z,66.60
2024-05-09T19:58:12.839Z,67.07
2024-05-09T20:00:43.181Z,66.51
2024-05-09T20:03:13.795Z,67.29
2024-05-09T20:05:43.248Z,68.29
2024-05-09T20:08:10.942Z,69.31
2024-05-09T20:10:39.384Z,69.69
2024-05-09T20:13:09.424Z,69.55
2024-05-09T20:15:37.829Z,70.09
2024-05-09T20:18:07.263Z,69.89
2024-05-09T20:20:39.689Z,70.03
2024-05-09T20:23:12.895Z,70.79
2024-05-09T20:25:40.943Z,71.51
2024-05-09T20:28:08.395Z,71.97
2024-05-09T20:30:36.353Z,71.34
2024-05-09T20:33:09.490Z,72.28
2024-05-09T20:35:38.416Z,71.42
2024-05-09T20:38:09.361Z,72.67
2024-05-09T20:40:39.614Z,73.05
2024-05-09T20:43:11.106Z,72.88
2024-05-09T20:45:39.618Z,73.65
2024-05-09T20:48:08.840Z,73.66
2024-05-09T20:50:42.332Z,74.30
2024-05-09T20:53:14.931Z,74.31
2024-05-09T20:55:46.253Z,74.55
2024-05-09T20:58:16.975Z,76.05
2024-05-09T21:00:45.973Z,76.45
2024-05-09T21:03:17.500Z,76.21
2024-05-09T21:05:46.363Z,77.03
2024-05-09T21:08:14.497Z,77.47
2024-05-09T21:10:42.284Z,77.19
2024-05-09T21:13:10.028Z,77.05
2024-05-09T21:15:37.495Z,78.21
2024-05-09T21:18:08.155Z,77.72
2024-05-09T21:20:35.571Z,78.49
2024-05-09T21:23:03.839Z,78.11
2024-05-09T21:25:36.469Z,78.19
2024-05-09T21:28:04.322Z,79.41
2024-05-09T21:30:40.395Z,79.86
2024-05-09T21:33:11.860Z,79.78
2024-05-09T21:35:41.940Z,80.26
2024-05-09T21:38:09.755Z,81.02
2024-05-09T21:40:37.989Z,80.74
2024-05-09T21:43:08.313Z,80.63
2024-05-09T21:45:38.531Z,81.29
2024-05-09T21:48:08.330Z,81.48
2024-05-09T21:50:40.118Z,81.04
2024-05-09T21:53:10.235Z,81.39
2024-05-09T21:55:37.645Z,82.33
2024-05-09T21:58:05.193Z,82.17
2024-05-09T22:00:37.377Z,82.76
2024-05-09T22:03:11.328Z,82.82
2024-05-09T22:05:39.958Z,82.30
2024-05-09T22:08:09.259Z,83.05
2024-05-09T22:10:39.663Z,82.72
2024-05-09T22:13:08.403Z,82.53
2024-05-09T22:15:41.499Z,83.33
2024-05-09T22:18:10.819Z,83.58
2024-05-09T22:20:39.874Z,83.68
2024-05-09T22:23:09.082Z,83.59
2024-05-09T22:25:37.254Z,83.80
2024-05-09T22:28:07.946Z,83.34
2024-05-09T22:30:41.190Z,83.61
2024-05-09T22:33:10.411Z,83.75
2024-05-09T22:35:40.273Z,84.20
2024-05-09T22:38:07.940Z,84.04
2024-05-09T22:43:10.435Z,83.84
2024-05-09T22:45:38.662Z,83.73
2024-05-09T22:48:09.713Z,84.19
2024-05-09T22:50:37.140Z,84.59
2024-05-09T22:53:04.476Z,84.46
2024-05-09T22:55:31.683Z,85.15
2024-05-09T22:57:59.907Z,84.57
2024-05-09T23:00:31.768Z,84.38
2024-05-09T23:03:05.769Z,84.42
2024-05-09T23:05:38.026Z,85.20
2024-05-09T23:08:05.634Z,84.79
2024-05-09T23:10:36.653Z,84.95
2024-05-09T23:13:08.381Z,85.95
2024-05-09T23:15:38.805Z,84.66
2024-05-09T23:18:10.951Z,84.44
2024-05-09T23:20:42.587Z,85.51
2024-05-09T23:23:12.035Z,86.45
2024-05-09T23:25:40.982Z,85.89
2024-05-09T23:28:08.893Z,85.06
2024-05-09T23:30:42.589Z,85.87
2024-05-09T23:33:13.636Z,85.98
2024-05-09T23:35:42.162Z,86.56
2024-05-09T23:38:09.851Z,86.96
2024-05-09T23:40:43.068Z,87.05
2024-05-09T23:43:15.419Z,87.07
2024-05-09T23:45:43.318Z,87.40
2024-05-09T23:48:11.424Z,88.43
2024-05-09T23:50:40.371Z,88.12
2024-05-09T23:53:14.298Z,88.46
2024-05-09T23:55:41.763Z,89.20
2024-05-09T23:58:11.992Z,89.39
